createdAt,value
2019-06-01T00:05:38.456Z,16.03
2019-06-01T00:16:11.705Z,16.37
2019-06-01T00:26:45.889Z,14.80
2019-06-01T00:37:19.012Z,11.67
2019-06-01T00:47:53.045Z,13.77
2019-06-01T00:58:26.105Z,13.23
2019-06-01T01:08:59.758Z,13.00
2019-06-01T01:19:33.165Z,14.07
2019-06-01T01:30:06.748Z,12.30
2019-06-01T01:40:40.246Z,12.70
2019-06-01T01:51:12.737Z,12.23
2019-06-01T02:01:45.563Z,12.47
2019-06-01T02:12:19.058Z,13.43
2019-06-01T02:22:53.077Z,12.57
2019-06-01T02:33:26.622Z,13.10
2019-06-01T02:44:01.632Z,12.33
2019-06-01T02:54:35.171Z,12.30
2019-06-01T03:05:07.797Z,12.60
2019-06-01T03:15:43.504Z,12.30
2019-06-01T03:26:17.335Z,12.67
2019-06-01T03:36:52.057Z,11.37
2019-06-01T03:47:25.600Z,11.63
2019-06-01T03:57:58.996Z,12.37
2019-06-01T04:08:31.884Z,12.90
2019-06-01T04:19:05.906Z,11.57
2019-06-01T04:29:39.187Z,10.87
2019-06-01T04:40:12.038Z,10.30
2019-06-01T04:50:45.677Z,8.80
2019-06-01T05:01:19.182Z,8.87
2019-06-01T05:11:52.975Z,9.40
2019-06-01T05:22:26.477Z,8.47
2019-06-01T05:32:59.914Z,9.27
2019-06-01T05:43:33.631Z,9.87
2019-06-01T05:54:07.195Z,10.07
2019-06-01T06:04:40.909Z,10.13
2019-06-01T06:15:13.848Z,10.10
2019-06-01T06:25:47.379Z,9.97
2019-06-01T06:36:21.786Z,15.87
2019-06-01T06:46:54.489Z,8.70
2019-06-01T06:57:28.134Z,10.30
2019-06-01T07:08:01.652Z,8.43
2019-06-01T07:18:35.249Z,9.43
2019-06-01T07:29:08.803Z,8.57
2019-06-01T07:39:42.296Z,8.23
2019-06-01T07:50:16.013Z,8.77
2019-06-01T08:00:49.725Z,8.43
2019-06-01T08:11:25.400Z,7.50
2019-06-01T08:21:58.716Z,7.40
2019-06-01T08:32:32.785Z,8.13
2019-06-01T08:43:06.330Z,9.03
2019-06-01T08:53:39.897Z,8.73
2019-06-01T09:04:13.724Z,7.63
2019-06-01T09:14:46.611Z,8.10
2019-06-01T09:25:20.551Z,7.90
2019-06-01T09:35:56.379Z,7.50
2019-06-01T09:46:28.977Z,8.33
2019-06-01T09:57:01.820Z,8.97
2019-06-01T10:07:36.900Z,7.73
2019-06-01T10:18:09.960Z,8.10
2019-06-01T10:28:43.580Z,7.80
2019-06-01T10:39:19.638Z,5.77
2019-06-01T10:49:53.385Z,9.17
2019-06-01T11:00:39.708Z,7.80
2019-06-01T11:11:04.384Z,6.90
2019-06-01T11:21:39.479Z,6.43
2019-06-01T11:32:12.918Z,7.03
2019-06-01T11:42:46.695Z,5.70
2019-06-01T11:53:20.255Z,7.00
2019-06-01T12:03:53.720Z,7.83
2019-06-01T12:14:27.060Z,6.80
2019-06-01T12:25:00.577Z,7.13
2019-06-01T12:35:34.074Z,7.80
2019-06-01T12:46:07.990Z,7.20
2019-06-01T12:56:41.034Z,7.50
2019-06-01T13:07:13.872Z,7.40
2019-06-01T13:17:47.548Z,6.20
2019-06-01T13:28:35.052Z,6.43
2019-06-01T13:38:56.878Z,6.73
2019-06-01T13:49:30.545Z,6.70
2019-06-01T14:00:03.888Z,6.67
2019-06-01T14:10:37.578Z,7.77
2019-06-01T14:21:11.006Z,7.70
2019-06-01T14:31:43.867Z,9.50
2019-06-01T14:42:16.541Z,9.63
2019-06-01T14:52:49.607Z,9.87
2019-06-01T15:03:23.298Z,8.10
2019-06-01T15:13:56.798Z,8.57
2019-06-01T15:24:30.584Z,8.87
2019-06-01T15:35:03.790Z,9.03
2019-06-01T15:45:41.094Z,7.80
2019-06-01T15:56:13.096Z,7.37
2019-06-01T16:06:46.221Z,7.97
2019-06-01T16:17:19.899Z,9.33
2019-06-01T16:27:54.561Z,7.73
2019-06-01T16:38:28.107Z,7.50
2019-06-01T16:49:01.787Z,8.10
2019-06-01T16:59:35.500Z,8.50
2019-06-01T17:10:24.619Z,8.97
2019-06-01T17:20:53.302Z,8.50
2019-06-01T17:31:26.890Z,9.20
2019-06-01T17:42:00.341Z,9.00
2019-06-01T17:52:34.180Z,12.03
2019-06-01T18:03:08.067Z,11.17
2019-06-01T18:13:41.418Z,21.63
2019-06-01T18:24:14.824Z,16.37
2019-06-01T18:34:47.583Z,11.53
2019-06-01T18:45:21.442Z,12.80
2019-06-01T18:55:55.004Z,13.37
2019-06-01T19:06:28.733Z,13.67
2019-06-01T19:17:01.395Z,12.27
2019-06-01T19:27:35.019Z,12.47
2019-06-01T19:38:11.207Z,13.67
2019-06-01T19:48:44.331Z,14.13
2019-06-01T19:59:18.042Z,13.23
2019-06-01T20:09:51.271Z,11.70
2019-06-01T20:20:24.037Z,11.23
2019-06-01T20:30:56.877Z,9.97
2019-06-01T20:41:29.570Z,11.47
2019-06-01T20:52:02.945Z,13.80
2019-06-01T21:02:36.447Z,14.80
2019-06-01T21:13:10.047Z,14.50
2019-06-01T21:23:42.878Z,12.93
2019-06-01T21:34:17.115Z,12.70
2019-06-01T21:44:50.215Z,12.83
2019-06-01T21:55:24.471Z,13.63
2019-06-01T22:05:58.244Z,12.50
2019-06-01T22:16:32.106Z,14.13
2019-06-01T22:27:04.924Z,14.17
2019-06-01T22:37:38.561Z,13.70
2019-06-01T22:48:11.224Z,14.57
2019-06-01T22:58:43.924Z,14.30
2019-06-01T23:09:17.575Z,16.03
2019-06-01T23:19:51.065Z,15.67
2019-06-01T23:30:24.705Z,14.87
2019-06-01T23:40:58.222Z,15.13
2019-06-01T23:51:32.019Z,16.00
